createdAt,value
2019-03-03T00:01:51.832Z,10.44
2019-03-03T00:04:21.165Z,10.44
2019-03-03T00:06:51.165Z,10.47
2019-03-03T00:09:21.121Z,10.56
2019-03-03T00:11:50.658Z,10.48
2019-03-03T00:14:20.717Z,10.48
2019-03-03T00:16:50.256Z,10.50
2019-03-03T00:19:19.387Z,10.58
2019-03-03T00:21:48.620Z,10.60
2019-03-03T00:24:18.032Z,10.61
2019-03-03T00:26:47.382Z,10.66
2019-03-03T00:29:18.745Z,10.63
2019-03-03T00:31:47.894Z,10.58
2019-03-03T00:34:16.996Z,10.60
2019-03-03T00:37:16.969Z,10.66
2019-03-03T00:40:11.102Z,10.62
2019-03-03T00:42:52.597Z,10.59
2019-03-03T00:45:44.063Z,10.60
2019-03-03T00:48:29.079Z,10.60
2019-03-03T00:51:16.261Z,10.75
2019-03-03T00:54:19.598Z,10.69
2019-03-03T00:57:01.177Z,10.79
2019-03-03T00:59:47.933Z,10.79
2019-03-03T01:02:33.945Z,10.85
2019-03-03T01:05:14.101Z,10.91
2019-03-03T01:07:54.036Z,10.85
2019-03-03T01:10:51.214Z,10.84
2019-03-03T01:13:38.176Z,10.95
2019-03-03T01:16:23.626Z,10.96
2019-03-03T01:19:01.255Z,10.96
2019-03-03T01:21:38.598Z,10.95
2019-03-03T01:24:29.797Z,10.89
2019-03-03T01:26:58.890Z,10.88
2019-03-03T01:29:28.012Z,10.92
2019-03-03T01:31:57.082Z,10.97
2019-03-03T01:34:26.265Z,10.99
2019-03-03T01:36:55.449Z,10.97
2019-03-03T01:39:24.656Z,10.99
2019-03-03T01:41:54.016Z,11.02
2019-03-03T01:44:23.221Z,11.00
2019-03-03T01:46:52.552Z,11.00
2019-03-03T01:49:21.692Z,11.00
2019-03-03T01:51:50.773Z,10.95
2019-03-03T01:54:20.050Z,10.92
2019-03-03T01:56:49.339Z,10.84
2019-03-03T01:59:18.709Z,10.86
2019-03-03T02:01:47.787Z,10.80
2019-03-03T02:04:16.900Z,10.76
2019-03-03T02:06:46.065Z,10.71
2019-03-03T02:09:15.386Z,10.73
2019-03-03T02:11:44.670Z,10.86
2019-03-03T02:14:14.167Z,10.83
2019-03-03T02:16:43.247Z,10.93
2019-03-03T02:19:12.346Z,10.83
2019-03-03T02:21:41.422Z,10.90
2019-03-03T02:24:10.847Z,10.85
2019-03-03T02:26:39.902Z,10.89
2019-03-03T02:29:09.182Z,10.90
2019-03-03T02:31:38.329Z,10.85
2019-03-03T02:34:07.536Z,10.95
2019-03-03T02:36:36.834Z,11.01
2019-03-03T02:39:14.079Z,11.07
2019-03-03T02:41:43.130Z,11.02
2019-03-03T02:44:12.466Z,10.89
2019-03-03T02:46:41.506Z,10.88
2019-03-03T02:49:11.016Z,10.88
2019-03-03T02:51:41.996Z,10.82
2019-03-03T02:54:11.418Z,10.82
2019-03-03T02:56:40.602Z,10.82
2019-03-03T02:59:09.753Z,10.79
2019-03-03T03:01:42.638Z,10.81
2019-03-03T03:04:12.062Z,10.83
2019-03-03T03:06:49.766Z,10.81
2019-03-03T03:09:24.479Z,10.82
2019-03-03T03:12:27.863Z,10.73
2019-03-03T03:15:12.202Z,10.75
2019-03-03T03:17:59.314Z,10.76
2019-03-03T03:20:50.150Z,10.75
2019-03-03T03:23:24.693Z,10.78
2019-03-03T03:26:03.722Z,10.68
2019-03-03T03:28:50.724Z,10.71
2019-03-03T03:31:36.022Z,10.62
2019-03-03T03:34:10.505Z,10.56
2019-03-03T03:37:07.835Z,10.51
2019-03-03T03:40:04.887Z,10.47
2019-03-03T03:42:51.731Z,10.48
2019-03-03T03:45:39.899Z,10.36
2019-03-03T03:48:40.433Z,10.41
2019-03-03T03:51:26.727Z,10.42
2019-03-03T03:54:09.565Z,10.42
2019-03-03T03:57:03.678Z,10.37
2019-03-03T03:59:50.666Z,10.28
2019-03-03T04:02:44.703Z,10.32
2019-03-03T04:05:26.023Z,10.33
2019-03-03T04:08:15.453Z,10.30
2019-03-03T04:11:02.453Z,10.32
2019-03-03T04:14:05.911Z,10.35
2019-03-03T04:16:56.673Z,10.33
2019-03-03T04:19:54.365Z,10.25
2019-03-03T04:22:37.251Z,10.28
2019-03-03T04:25:14.512Z,10.27
2019-03-03T04:27:50.966Z,10.25
2019-03-03T04:30:37.141Z,10.33
2019-03-03T04:33:24.790Z,10.33
2019-03-03T04:36:31.161Z,10.44
2019-03-03T04:39:17.913Z,10.61
2019-03-03T04:41:58.900Z,10.54
2019-03-03T04:44:44.511Z,10.59
2019-03-03T04:47:38.519Z,10.62
2019-03-03T04:50:22.046Z,10.69
2019-03-03T04:53:10.269Z,10.71
2019-03-03T04:56:04.379Z,10.70
2019-03-03T04:58:51.093Z,10.78
2019-03-03T05:01:34.996Z,10.85
2019-03-03T05:04:25.932Z,10.78
2019-03-03T05:07:01.486Z,10.73
2019-03-03T05:09:52.483Z,10.74
2019-03-03T05:12:39.747Z,10.89
2019-03-03T05:15:32.262Z,10.83
2019-03-03T05:18:13.316Z,10.90
2019-03-03T05:20:47.049Z,10.85
2019-03-03T05:23:16.089Z,10.83
2019-03-03T05:25:45.130Z,10.89
2019-03-03T05:28:14.426Z,10.86
2019-03-03T05:30:45.354Z,10.83
2019-03-03T05:33:14.435Z,10.78
2019-03-03T05:35:43.859Z,10.77
2019-03-03T05:38:12.934Z,10.84
2019-03-03T05:40:42.121Z,10.79
2019-03-03T05:43:11.462Z,10.72
2019-03-03T05:45:40.547Z,10.73
2019-03-03T05:48:09.732Z,10.64
2019-03-03T05:50:39.053Z,10.63
2019-03-03T05:53:08.174Z,10.61
2019-03-03T05:55:37.442Z,10.68
2019-03-03T05:58:06.640Z,10.62
2019-03-03T06:00:35.745Z,10.58
2019-03-03T06:03:05.144Z,10.62
2019-03-03T06:05:34.374Z,10.49
2019-03-03T06:08:03.544Z,10.53
2019-03-03T06:10:32.775Z,10.41
2019-03-03T06:13:01.874Z,10.39
2019-03-03T06:15:34.123Z,10.44
2019-03-03T06:18:03.424Z,10.31
2019-03-03T06:20:32.669Z,10.36
2019-03-03T06:23:01.866Z,10.35
2019-03-03T06:25:31.090Z,10.38
2019-03-03T06:28:00.273Z,10.30
2019-03-03T06:30:29.528Z,10.38
2019-03-03T06:32:58.827Z,10.37
2019-03-03T06:35:28.251Z,10.33
2019-03-03T06:37:57.331Z,10.25
2019-03-03T06:40:26.374Z,10.30
2019-03-03T06:42:55.617Z,10.29
2019-03-03T06:45:24.744Z,10.26
2019-03-03T06:47:54.074Z,10.23
2019-03-03T06:50:23.354Z,10.17
2019-03-03T06:52:52.471Z,10.11
2019-03-03T06:55:21.757Z,10.15
2019-03-03T06:57:50.971Z,10.27
2019-03-03T07:00:20.259Z,10.28
2019-03-03T07:02:49.656Z,10.35
2019-03-03T07:05:18.698Z,10.39
2019-03-03T07:07:47.833Z,10.39
2019-03-03T07:10:17.042Z,10.34
2019-03-03T07:12:46.111Z,10.34
2019-03-03T07:15:16.442Z,10.36
2019-03-03T07:17:45.806Z,10.39
2019-03-03T07:20:15.049Z,10.52
2019-03-03T07:22:44.444Z,10.45
2019-03-03T07:25:14.270Z,10.46
2019-03-03T07:27:43.518Z,10.45
2019-03-03T07:30:14.109Z,10.48
2019-03-03T07:32:47.737Z,10.54
2019-03-03T07:35:17.192Z,10.51
2019-03-03T07:37:46.473Z,10.52
2019-03-03T07:40:15.644Z,10.51
2019-03-03T07:42:44.700Z,10.52
2019-03-03T07:45:13.972Z,10.59
2019-03-03T07:47:43.123Z,10.65
2019-03-03T07:50:12.268Z,10.72
2019-03-03T07:52:41.620Z,10.83
2019-03-03T07:55:10.950Z,10.85
2019-03-03T07:57:40.273Z,10.91
2019-03-03T08:00:10.563Z,10.92
2019-03-03T08:02:40.200Z,10.89
2019-03-03T08:05:09.293Z,11.00
2019-03-03T08:07:38.365Z,11.06
2019-03-03T08:10:08.146Z,11.09
2019-03-03T08:12:37.403Z,11.10
2019-03-03T08:15:06.601Z,11.14
2019-03-03T08:17:35.925Z,11.15
2019-03-03T08:20:06.401Z,11.16
2019-03-03T08:22:35.510Z,11.16
2019-03-03T08:25:04.627Z,11.17
2019-03-03T08:27:33.742Z,11.14
2019-03-03T08:30:02.847Z,11.17
2019-03-03T08:32:32.099Z,11.18
2019-03-03T08:35:01.237Z,11.21
2019-03-03T08:37:30.650Z,11.25
2019-03-03T08:39:59.766Z,11.26
2019-03-03T08:42:43.152Z,11.33
2019-03-03T08:45:37.074Z,11.36
2019-03-03T08:48:16.412Z,11.41
2019-03-03T08:50:53.323Z,11.39
2019-03-03T08:53:38.207Z,11.41
2019-03-03T08:56:15.976Z,11.49
2019-03-03T08:59:00.744Z,11.46
2019-03-03T09:01:51.856Z,11.48
2019-03-03T09:04:35.327Z,11.50
2019-03-03T09:07:26.352Z,11.51
2019-03-03T09:10:25.351Z,11.53
2019-03-03T09:13:04.476Z,11.58
2019-03-03T09:15:59.021Z,11.61
2019-03-03T09:18:59.494Z,11.65
2019-03-03T09:21:46.387Z,11.72
2019-03-03T09:24:27.145Z,11.75
2019-03-03T09:27:17.447Z,11.81
2019-03-03T09:30:11.453Z,11.84
2019-03-03T09:32:58.218Z,11.93
2019-03-03T09:35:45.293Z,12.11
2019-03-03T09:38:22.312Z,12.14
2019-03-03T09:41:01.199Z,12.19
2019-03-03T09:43:52.288Z,12.19
2019-03-03T09:46:58.563Z,12.24
2019-03-03T09:49:58.988Z,12.46
2019-03-03T09:52:45.660Z,12.58
2019-03-03T09:55:21.386Z,12.61
2019-03-03T09:58:05.297Z,12.47
2019-03-03T10:00:50.189Z,12.49
2019-03-03T10:03:37.857Z,12.52
2019-03-03T10:06:28.696Z,12.51
2019-03-03T10:09:13.213Z,12.40
2019-03-03T10:12:13.635Z,12.34
2019-03-03T10:14:51.823Z,12.21
2019-03-03T10:17:48.831Z,12.24
2019-03-03T10:20:36.154Z,12.28
2019-03-03T10:23:29.221Z,12.33
2019-03-03T10:26:10.906Z,12.38
2019-03-03T10:29:02.248Z,12.34
2019-03-03T10:32:01.503Z,12.38
2019-03-03T10:34:56.311Z,12.36
2019-03-03T10:37:44.348Z,12.32
2019-03-03T10:40:29.422Z,12.20
2019-03-03T10:43:08.470Z,12.16
2019-03-03T10:45:45.069Z,12.23
2019-03-03T10:48:38.247Z,12.33
2019-03-03T10:51:29.296Z,12.21
2019-03-03T10:54:25.977Z,12.12
2019-03-03T10:57:20.021Z,12.13
2019-03-03T11:00:06.839Z,12.13
2019-03-03T11:02:46.437Z,12.19
2019-03-03T11:05:37.727Z,12.23
2019-03-03T11:08:44.202Z,12.27
2019-03-03T11:11:30.858Z,12.31
2019-03-03T11:14:15.327Z,12.39
2019-03-03T11:17:03.588Z,12.39
2019-03-03T11:19:43.226Z,12.46
2019-03-03T11:22:21.166Z,12.52
2019-03-03T11:25:09.995Z,12.44
2019-03-03T11:27:52.788Z,12.47
2019-03-03T11:30:44.074Z,12.53
2019-03-03T11:33:38.223Z,12.55
2019-03-03T11:36:25.343Z,12.52
2019-03-03T11:39:04.018Z,12.58
2019-03-03T11:41:44.757Z,12.71
2019-03-03T11:44:25.073Z,12.80
2019-03-03T11:47:03.605Z,12.77
2019-03-03T11:49:49.678Z,12.81
2019-03-03T11:52:37.685Z,12.89
2019-03-03T11:55:19.964Z,12.92
2019-03-03T11:57:57.453Z,12.95
2019-03-03T12:00:44.476Z,12.90
2019-03-03T12:03:32.209Z,12.88
2019-03-03T12:06:26.582Z,12.87
2019-03-03T12:09:14.771Z,12.90
2019-03-03T12:12:11.952Z,13.04
2019-03-03T12:15:15.103Z,13.06
2019-03-03T12:18:03.143Z,13.15
2019-03-03T12:20:49.699Z,13.12
2019-03-03T12:23:25.583Z,13.18
2019-03-03T12:26:07.233Z,13.28
2019-03-03T12:29:01.560Z,13.31
2019-03-03T12:31:40.126Z,13.29
2019-03-03T12:34:19.729Z,13.36
2019-03-03T12:37:07.258Z,13.28
2019-03-03T12:39:55.625Z,13.28
2019-03-03T12:42:46.921Z,13.27
2019-03-03T12:45:26.114Z,13.22
2019-03-03T12:48:03.350Z,13.16
2019-03-03T12:50:57.631Z,13.19
2019-03-03T12:53:43.426Z,13.23
2019-03-03T12:56:30.034Z,13.24
2019-03-03T12:59:24.491Z,13.32
2019-03-03T13:02:22.119Z,13.30
2019-03-03T13:05:06.602Z,13.29
2019-03-03T13:07:50.032Z,13.21
2019-03-03T13:10:47.454Z,13.20
2019-03-03T13:13:34.213Z,13.27
2019-03-03T13:16:22.119Z,13.24
2019-03-03T13:19:16.289Z,13.33
2019-03-03T13:22:04.650Z,13.29
2019-03-03T13:25:01.883Z,13.31
2019-03-03T13:27:52.783Z,13.42
2019-03-03T13:30:30.346Z,13.36
2019-03-03T13:33:26.115Z,13.40
2019-03-03T13:36:19.461Z,13.44
2019-03-03T13:39:06.569Z,13.42
2019-03-03T13:41:53.331Z,13.43
2019-03-03T13:44:22.445Z,13.45
2019-03-03T13:46:51.649Z,13.50
2019-03-03T13:49:21.927Z,13.58
2019-03-03T13:51:51.319Z,13.63
2019-03-03T13:54:20.424Z,13.69
2019-03-03T13:56:49.718Z,13.73
2019-03-03T13:59:18.886Z,13.82
2019-03-03T14:01:48.397Z,13.94
2019-03-03T14:04:17.521Z,14.12
2019-03-03T14:06:46.723Z,14.31
2019-03-03T14:09:15.903Z,14.52
2019-03-03T14:11:45.228Z,14.63
2019-03-03T14:14:14.418Z,14.48
2019-03-03T14:16:43.651Z,14.52
2019-03-03T14:19:12.748Z,14.58
2019-03-03T14:21:41.975Z,14.44
2019-03-03T14:24:11.088Z,14.41
2019-03-03T14:26:40.417Z,14.47
2019-03-03T14:29:09.759Z,14.47
2019-03-03T14:31:39.013Z,14.44
2019-03-03T14:34:08.102Z,14.46
2019-03-03T14:36:37.207Z,14.45
2019-03-03T14:39:07.695Z,14.45
2019-03-03T14:41:36.982Z,14.24
2019-03-03T14:44:06.494Z,14.15
2019-03-03T14:46:35.980Z,14.16
2019-03-03T14:49:05.259Z,14.08
2019-03-03T14:51:34.447Z,14.07
2019-03-03T14:54:04.035Z,14.05
2019-03-03T14:56:33.174Z,14.01
2019-03-03T14:59:02.238Z,13.96
2019-03-03T15:01:34.792Z,13.96
2019-03-03T15:04:04.283Z,13.93
2019-03-03T15:06:33.936Z,13.93
2019-03-03T15:09:04.695Z,13.67
2019-03-03T15:11:34.064Z,13.92
2019-03-03T15:14:06.350Z,13.83
2019-03-03T15:16:35.613Z,13.76
2019-03-03T15:19:04.800Z,13.87
2019-03-03T15:21:33.919Z,13.80
2019-03-03T15:24:03.697Z,13.82
2019-03-03T15:26:33.077Z,13.78
2019-03-03T15:29:02.499Z,13.76
2019-03-03T15:31:37.626Z,13.84
2019-03-03T15:34:02.989Z,13.83
2019-03-03T15:36:32.385Z,13.76
2019-03-03T15:39:01.645Z,13.76
2019-03-03T15:41:33.785Z,13.69
2019-03-03T15:44:03.201Z,13.66
2019-03-03T15:46:32.870Z,13.60
2019-03-03T15:49:02.090Z,13.62
2019-03-03T15:51:31.272Z,13.55
2019-03-03T15:54:04.274Z,13.57
2019-03-03T15:56:37.010Z,13.54
2019-03-03T15:59:06.524Z,13.59
2019-03-03T16:01:36.074Z,13.60
2019-03-03T16:04:07.008Z,13.52
2019-03-03T16:06:37.139Z,13.49
2019-03-03T16:09:10.862Z,13.41
2019-03-03T16:11:40.040Z,13.39
2019-03-03T16:14:09.804Z,13.33
2019-03-03T16:16:38.950Z,13.24
2019-03-03T16:19:08.243Z,13.36
2019-03-03T16:21:38.273Z,13.31
2019-03-03T16:24:09.321Z,13.33
2019-03-03T16:26:38.511Z,13.27
2019-03-03T16:29:07.610Z,13.30
2019-03-03T16:31:36.901Z,13.25
2019-03-03T16:34:06.789Z,13.24
2019-03-03T16:36:36.720Z,13.19
2019-03-03T16:39:07.462Z,13.19
2019-03-03T16:41:37.146Z,13.17
2019-03-03T16:44:06.311Z,13.23
2019-03-03T16:46:35.578Z,13.21
2019-03-03T16:49:04.722Z,13.20
2019-03-03T16:51:35.032Z,13.25
2019-03-03T16:54:04.146Z,13.18
2019-03-03T16:56:33.322Z,13.20
2019-03-03T16:59:02.887Z,13.14
2019-03-03T17:01:32.117Z,13.19
2019-03-03T17:04:01.389Z,13.14
2019-03-03T17:06:30.506Z,13.10
2019-03-03T17:08:59.597Z,13.09
2019-03-03T17:11:28.878Z,13.12
2019-03-03T17:13:58.095Z,13.13
2019-03-03T17:16:27.491Z,13.16
2019-03-03T17:18:56.593Z,13.13
2019-03-03T17:21:25.662Z,13.16
2019-03-03T17:23:54.835Z,13.18
2019-03-03T17:26:24.098Z,13.17
2019-03-03T17:28:53.192Z,13.10
2019-03-03T17:31:27.638Z,13.14
2019-03-03T17:33:56.739Z,13.14
2019-03-03T17:36:25.774Z,13.25
2019-03-03T17:38:55.225Z,13.16
2019-03-03T17:41:24.304Z,13.23
2019-03-03T17:43:53.406Z,13.18
2019-03-03T17:46:22.768Z,13.18
2019-03-03T17:48:51.999Z,13.14
2019-03-03T17:51:21.071Z,13.20
2019-03-03T17:53:50.405Z,13.22
2019-03-03T17:56:19.493Z,13.19
2019-03-03T17:58:48.924Z,13.16
2019-03-03T18:01:18.038Z,13.26
2019-03-03T18:03:47.304Z,13.23
2019-03-03T18:06:16.728Z,13.29
2019-03-03T18:08:45.790Z,13.30
2019-03-03T18:11:15.154Z,13.16
2019-03-03T18:13:44.238Z,13.20
2019-03-03T18:16:13.450Z,13.13
2019-03-03T18:18:42.581Z,13.13
2019-03-03T18:21:11.865Z,13.21
2019-03-03T18:23:41.090Z,13.15
2019-03-03T18:26:10.307Z,13.19
2019-03-03T18:28:39.509Z,13.11
2019-03-03T18:31:08.919Z,13.14
2019-03-03T18:33:37.983Z,13.08
2019-03-03T18:36:07.133Z,13.03
2019-03-03T18:38:36.437Z,13.16
2019-03-03T18:41:05.919Z,13.18
2019-03-03T18:43:35.605Z,13.14
2019-03-03T18:46:05.849Z,13.05
2019-03-03T18:48:36.325Z,13.13
2019-03-03T18:51:06.433Z,13.09
2019-03-03T18:53:35.660Z,13.13
2019-03-03T18:56:04.996Z,13.19
2019-03-03T18:58:34.159Z,13.10
2019-03-03T19:01:05.030Z,13.13
2019-03-03T19:03:35.317Z,13.20
2019-03-03T19:06:05.135Z,13.17
2019-03-03T19:08:34.837Z,13.16
2019-03-03T19:11:04.424Z,13.13
2019-03-03T19:13:35.607Z,13.21
2019-03-03T19:16:06.331Z,13.15
2019-03-03T19:18:37.162Z,13.19
2019-03-03T19:21:06.405Z,13.18
2019-03-03T19:23:36.208Z,13.14
2019-03-03T19:26:05.619Z,13.20
2019-03-03T19:28:34.923Z,13.25
2019-03-03T19:31:05.668Z,13.19
2019-03-03T19:33:39.838Z,13.22
2019-03-03T19:36:09.006Z,13.26
2019-03-03T19:38:38.276Z,13.27
2019-03-03T19:41:07.368Z,13.36
2019-03-03T19:43:38.109Z,13.30
2019-03-03T19:46:07.817Z,13.28
2019-03-03T19:48:37.004Z,13.30
2019-03-03T19:51:06.653Z,13.42
2019-03-03T19:53:35.820Z,13.43
2019-03-03T19:56:05.122Z,13.37
2019-03-03T19:58:34.330Z,13.39
2019-03-03T20:01:06.156Z,13.38
2019-03-03T20:03:35.865Z,13.31
2019-03-03T20:06:04.990Z,13.27
2019-03-03T20:08:34.393Z,13.27
2019-03-03T20:11:03.843Z,13.34
2019-03-03T20:13:33.551Z,13.36
2019-03-03T20:16:02.664Z,13.31
2019-03-03T20:18:32.409Z,13.35
2019-03-03T20:21:01.736Z,13.29
2019-03-03T20:23:31.072Z,13.21
2019-03-03T20:26:01.237Z,13.36
2019-03-03T20:28:30.623Z,13.38
2019-03-03T20:30:59.953Z,13.44
2019-03-03T20:33:29.251Z,13.39
2019-03-03T20:35:58.591Z,13.42
2019-03-03T20:38:27.860Z,13.44
2019-03-03T20:40:57.742Z,13.40
2019-03-03T20:43:26.973Z,13.27
2019-03-03T20:45:57.749Z,13.37
2019-03-03T20:48:27.280Z,13.36
2019-03-03T20:50:56.518Z,13.34
2019-03-03T20:53:25.896Z,13.34
2019-03-03T20:55:55.110Z,13.36
2019-03-03T20:58:24.510Z,13.31
2019-03-03T21:00:55.539Z,13.33
2019-03-03T21:03:24.772Z,13.32
2019-03-03T21:05:54.093Z,13.37
2019-03-03T21:08:23.854Z,13.30
2019-03-03T21:10:53.307Z,13.31
2019-03-03T21:13:22.841Z,13.34
2019-03-03T21:15:52.538Z,13.40
2019-03-03T21:18:21.918Z,13.33
2019-03-03T21:20:51.880Z,13.27
2019-03-03T21:23:21.199Z,13.42
2019-03-03T21:25:50.365Z,13.40
2019-03-03T21:28:21.419Z,13.34
2019-03-03T21:30:50.689Z,13.34
2019-03-03T21:33:20.374Z,13.27
2019-03-03T21:35:50.040Z,13.23
2019-03-03T21:38:19.721Z,13.25
2019-03-03T21:40:48.756Z,13.29
2019-03-03T21:43:17.931Z,13.24
2019-03-03T21:45:47.363Z,13.25
2019-03-03T21:48:16.479Z,13.26
2019-03-03T21:50:45.855Z,13.31
2019-03-03T21:53:15.490Z,13.44
2019-03-03T21:55:45.371Z,13.65
2019-03-03T21:58:14.849Z,13.49
2019-03-03T22:00:44.918Z,13.55
2019-03-03T22:03:15.743Z,13.47
2019-03-03T22:05:45.109Z,13.40
2019-03-03T22:08:14.239Z,13.32
2019-03-03T22:10:43.335Z,13.24
2019-03-03T22:13:13.682Z,13.18
2019-03-03T22:15:42.809Z,13.15
2019-03-03T22:18:11.898Z,13.10
2019-03-03T22:20:41.074Z,13.06
2019-03-03T22:23:10.182Z,13.05
2019-03-03T22:25:41.321Z,13.03
2019-03-03T22:28:11.273Z,12.99
2019-03-03T22:30:40.719Z,12.93
2019-03-03T22:33:09.995Z,12.88
2019-03-03T22:35:39.323Z,12.85
2019-03-03T22:38:09.353Z,12.77
2019-03-03T22:40:38.628Z,12.70
2019-03-03T22:43:07.927Z,12.58
2019-03-03T22:45:37.057Z,12.50
2019-03-03T22:48:06.297Z,12.44
2019-03-03T22:50:35.730Z,12.41
2019-03-03T22:53:04.920Z,12.35
2019-03-03T22:55:40.490Z,12.22
2019-03-03T22:58:10.211Z,12.20
2019-03-03T23:01:07.971Z,12.10
2019-03-03T23:04:08.355Z,11.99
2019-03-03T23:06:55.045Z,11.87
2019-03-03T23:10:08.613Z,11.72
2019-03-03T23:13:01.952Z,11.65
2019-03-03T23:15:55.229Z,11.62
2019-03-03T23:18:54.665Z,11.49
2019-03-03T23:21:32.094Z,11.39
2019-03-03T23:24:36.017Z,11.29
2019-03-03T23:27:05.652Z,11.23
2019-03-03T23:29:34.675Z,11.13
2019-03-03T23:32:03.984Z,11.19
2019-03-03T23:34:33.212Z,11.22
2019-03-03T23:37:02.642Z,11.15
2019-03-03T23:39:32.265Z,11.08
2019-03-03T23:42:01.659Z,11.13
2019-03-03T23:44:30.812Z,11.31
2019-03-03T23:47:00.151Z,11.16
2019-03-03T23:49:29.190Z,11.25
2019-03-03T23:51:58.390Z,11.19
2019-03-03T23:54:27.478Z,11.16
2019-03-03T23:56:56.724Z,11.17
2019-03-03T23:59:26.159Z,11.27
